This is the latest recevied weather packets stored in our database for station/object N4OOJ-13. If no packets are shown the sender has not sent any weather packets the latest 10 day(s).
| Time | Temp. | Humidity | Pressure | Rain* | Wind** | Luminosity | Snow |
|---|---|---|---|---|---|---|---|
| 1787764225 | 23.89° C | 99% | 1020.4 hPa | 5.33 mm | - | - | - |
| 1787763624 | 24.44° C | 99% | 1020.5 hPa | 5.33 mm | - | - | - |
| 1787763017 | 25° C | 99% | 1020.1 hPa | 3.3 mm | - | - | - |
| 1787762417 | 25.56° C | 96% | 1019.8 hPa | 0.25 mm | - | - | - |
| 1787761830 | 26.11° C | 96% | 1019.6 hPa | 0.25 mm | - | - | - |
| 1787761226 | 25.56° C | 97% | 1019.3 hPa | 0.25 mm | - | - | - |
| 1787760620 | 25.56° C | 98% | 1019.3 hPa | 0.25 mm | - | - | - |
| 1787760020 | 26.11° C | 95% | 1019.4 hPa | 0.25 mm | - | - | - |
| 1787759419 | 26.67° C | 89% | 1019.4 hPa | 0 mm | - | - | - |
| 1787758824 | 27.78° C | 85% | 1019.4 hPa | 0 mm | - | - | - |
| 1787758216 | 28.89° C | 85% | 1019.2 hPa | 0 mm | - | - | - |
| 1787757623 | 30.56° C | 81% | 1019.2 hPa | 0 mm | - | - | - |
| 1787757016 | 29.44° C | 84% | 1019.2 hPa | 0 mm | - | - | - |
| 1787756416 | 30° C | 83% | 1019.1 hPa | 0 mm | - | - | - |
| 1787755828 | 32.22° C | 75% | 1019 hPa | 0 mm | - | - | - |
| 1787755228 | 32.22° C | 73% | 1019.1 hPa | 0 mm | - | - | - |
| 1787754623 | 31.67° C | 78% | 1019.1 hPa | 0 mm | - | - | - |
| 1787754023 | 31.11° C | 81% | 1019.4 hPa | 0 mm | - | - | - |
| 1787753422 | 29.44° C | 86% | 1019.5 hPa | 0 mm | - | - | - |
| 1787752820 | 30° C | 83% | 1019.5 hPa | 0 mm | - | - | - |
| 1787752227 | 30° C | 83% | 1019.4 hPa | 0 mm | - | - | - |
| 1787751621 | 31.11° C | 79% | 1019.1 hPa | 0 mm | - | - | - |
| 1787751016 | 30° C | 83% | 1019 hPa | 0 mm | - | - | - |
| 1787750418 | 28.89° C | 89% | 1019 hPa | 0 mm | - | - | - |
| 1787749830 | 27.78° C | 94% | 1019.2 hPa | 0 mm | - | - | - |
* Rain latest hour (hover to see other rain measurements)
** Current wind speed in m/s (hover to see current wind gust speed)